createdAt,value
2019-02-26T00:01:19.193Z,25.93
2019-02-26T00:03:51.765Z,26.53
2019-02-26T00:06:25.488Z,27.70
2019-02-26T00:08:59.554Z,25.30
2019-02-26T00:11:33.314Z,25.07
2019-02-26T00:14:06.257Z,26.30
2019-02-26T00:16:39.996Z,30.77
2019-02-26T00:19:14.379Z,24.23
2019-02-26T00:21:47.927Z,26.73
2019-02-26T00:24:20.419Z,26.80
2019-02-26T00:26:52.817Z,25.60
2019-02-26T00:29:25.433Z,22.70
2019-02-26T00:31:58.859Z,27.23
2019-02-26T00:34:32.391Z,25.80
2019-02-26T00:37:06.324Z,25.93
2019-02-26T00:39:39.353Z,26.83
2019-02-26T00:42:11.858Z,25.33
2019-02-26T00:44:43.956Z,26.90
2019-02-26T00:47:16.237Z,28.57
2019-02-26T00:49:50.619Z,28.43
2019-02-26T00:52:22.880Z,25.07
2019-02-26T00:54:57.602Z,27.33
2019-02-26T00:57:31.186Z,24.80
2019-02-26T01:00:05.349Z,26.83
2019-02-26T01:02:39.515Z,28.30
2019-02-26T01:05:15.531Z,26.13
2019-02-26T01:07:49.423Z,25.37
2019-02-26T01:10:23.470Z,28.77
2019-02-26T01:12:56.496Z,28.53
2019-02-26T01:15:29.460Z,24.63
2019-02-26T01:18:03.190Z,27.23
2019-02-26T01:20:35.834Z,25.30
2019-02-26T01:23:08.077Z,24.90
2019-02-26T01:25:40.663Z,26.83
2019-02-26T01:28:16.062Z,27.80
2019-02-26T01:30:48.917Z,27.13
2019-02-26T01:33:22.338Z,26.67
2019-02-26T01:35:57.506Z,27.90
2019-02-26T01:38:29.611Z,29.27
2019-02-26T01:41:01.959Z,29.83
2019-02-26T01:43:34.195Z,27.20
2019-02-26T01:46:07.780Z,26.03
2019-02-26T01:48:41.279Z,27.10
2019-02-26T01:51:13.453Z,28.33
2019-02-26T01:53:46.927Z,26.60
2019-02-26T01:56:20.488Z,23.87
2019-02-26T01:58:56.586Z,28.43
2019-02-26T02:01:26.799Z,29.17
2019-02-26T02:03:59.206Z,29.30
2019-02-26T02:06:33.108Z,26.83
2019-02-26T02:09:09.314Z,27.63
2019-02-26T02:11:40.729Z,27.13
2019-02-26T02:14:14.864Z,27.90
2019-02-26T02:16:46.926Z,28.37
2019-02-26T02:19:20.864Z,26.43
2019-02-26T02:21:54.311Z,26.77
2019-02-26T02:24:27.511Z,32.37
2019-02-26T02:27:00.358Z,29.37
2019-02-26T02:29:32.635Z,31.40
2019-02-26T02:32:07.128Z,26.97
2019-02-26T02:34:40.130Z,31.80
2019-02-26T02:37:15.338Z,28.70
2019-02-26T02:39:47.933Z,30.53
2019-02-26T02:42:22.009Z,26.13
2019-02-26T02:44:54.209Z,30.00
2019-02-26T02:47:28.564Z,29.67
2019-02-26T02:50:00.367Z,28.07
2019-02-26T02:52:35.123Z,29.37
2019-02-26T02:55:09.890Z,29.50
2019-02-26T02:57:41.463Z,30.67
2019-02-26T03:00:15.056Z,26.20
2019-02-26T03:02:50.018Z,28.57
2019-02-26T03:05:21.734Z,33.23
2019-02-26T03:07:56.270Z,32.50
2019-02-26T03:10:30.785Z,29.10
2019-02-26T03:13:02.953Z,30.37
2019-02-26T03:15:35.853Z,30.50
2019-02-26T03:18:09.896Z,30.93
2019-02-26T03:20:42.336Z,32.10
2019-02-26T03:23:18.979Z,31.77
2019-02-26T03:25:50.500Z,36.20
2019-02-26T03:28:22.758Z,34.30
2019-02-26T03:30:54.959Z,31.43
2019-02-26T03:33:27.049Z,31.23
2019-02-26T03:35:59.928Z,32.73
2019-02-26T03:38:32.050Z,32.50
2019-02-26T03:41:04.437Z,31.93
2019-02-26T03:43:39.232Z,31.03
2019-02-26T03:46:10.611Z,35.03
2019-02-26T03:48:42.746Z,34.97
2019-02-26T03:51:17.182Z,34.23
2019-02-26T03:53:49.079Z,33.73
2019-02-26T03:56:21.848Z,32.67
2019-02-26T03:58:56.982Z,35.53
2019-02-26T04:01:28.531Z,31.77
2019-02-26T04:04:02.529Z,36.37
2019-02-26T04:06:36.578Z,33.33
2019-02-26T04:09:10.886Z,32.37
2019-02-26T04:11:45.509Z,36.90
2019-02-26T04:14:18.137Z,36.33
2019-02-26T04:16:51.307Z,35.43
2019-02-26T04:19:26.095Z,38.40
2019-02-26T04:22:26.359Z,35.17
2019-02-26T04:25:06.282Z,33.77
2019-02-26T04:28:10.927Z,35.33
2019-02-26T04:31:18.239Z,34.37
2019-02-26T04:34:27.878Z,36.90
2019-02-26T04:37:38.531Z,37.03
2019-02-26T04:40:55.405Z,37.43
2019-02-26T04:44:01.235Z,38.57
2019-02-26T04:47:05.895Z,36.03
2019-02-26T04:49:40.218Z,39.00
2019-02-26T04:52:14.307Z,34.40
2019-02-26T04:54:45.882Z,37.90
2019-02-26T04:57:18.131Z,39.87
2019-02-26T04:59:50.422Z,43.80
2019-02-26T05:02:22.820Z,35.70
2019-02-26T05:04:55.449Z,38.77
2019-02-26T05:07:27.835Z,37.10
2019-02-26T05:10:02.284Z,38.73
2019-02-26T05:12:36.692Z,33.70
2019-02-26T05:15:11.608Z,39.67
2019-02-26T05:17:42.162Z,42.17
2019-02-26T05:20:16.499Z,39.13
2019-02-26T05:22:52.038Z,39.20
2019-02-26T05:25:24.952Z,40.33
2019-02-26T05:27:57.130Z,41.87
2019-02-26T05:30:29.628Z,38.53
2019-02-26T05:33:02.931Z,36.60
2019-02-26T05:35:37.820Z,40.13
2019-02-26T05:38:09.975Z,39.80
2019-02-26T05:40:42.754Z,44.10
2019-02-26T05:43:16.247Z,38.90
2019-02-26T05:45:49.044Z,39.97
2019-02-26T05:48:23.809Z,43.70
2019-02-26T05:50:57.556Z,45.60
2019-02-26T05:53:30.529Z,31.70
2019-02-26T05:56:03.031Z,39.27
2019-02-26T05:58:36.298Z,44.20
2019-02-26T06:01:09.514Z,43.47
2019-02-26T06:03:43.678Z,40.37
2019-02-26T06:06:15.745Z,40.90
2019-02-26T06:08:47.985Z,41.80
2019-02-26T06:11:21.712Z,43.67
2019-02-26T06:13:56.315Z,39.50
2019-02-26T06:16:28.941Z,43.60
2019-02-26T06:19:02.843Z,41.70
2019-02-26T06:21:39.640Z,45.73
2019-02-26T06:24:09.247Z,43.30
2019-02-26T06:26:43.142Z,39.27
2019-02-26T06:29:20.003Z,43.77
2019-02-26T06:31:50.077Z,44.87
2019-02-26T06:34:22.470Z,44.67
2019-02-26T06:37:13.941Z,43.60
2019-02-26T06:39:50.601Z,45.07
2019-02-26T06:42:21.445Z,43.00
2019-02-26T06:44:53.540Z,48.43
2019-02-26T06:47:28.004Z,40.93
2019-02-26T06:50:00.039Z,49.13
2019-02-26T06:52:35.167Z,45.20
2019-02-26T06:55:07.802Z,48.10
2019-02-26T06:57:41.442Z,46.13
2019-02-26T07:00:16.226Z,43.40
2019-02-26T07:02:48.154Z,46.13
2019-02-26T07:05:23.810Z,42.13
2019-02-26T07:07:56.946Z,46.63
2019-02-26T07:10:31.148Z,47.80
2019-02-26T07:13:05.021Z,48.00
2019-02-26T07:15:36.720Z,51.87
2019-02-26T07:18:10.705Z,48.63
2019-02-26T07:20:46.799Z,47.43
2019-02-26T07:23:17.111Z,44.67
2019-02-26T07:25:49.476Z,47.97
2019-02-26T07:28:22.869Z,45.47
2019-02-26T07:30:55.835Z,60.13
2019-02-26T07:33:29.844Z,48.27
2019-02-26T07:36:04.134Z,51.37
2019-02-26T07:38:41.181Z,49.97
2019-02-26T07:41:10.811Z,51.53
2019-02-26T07:43:44.610Z,49.37
2019-02-26T07:46:19.215Z,55.47
2019-02-26T07:48:54.039Z,48.20
2019-02-26T07:51:25.468Z,49.60
2019-02-26T07:53:58.316Z,49.27
2019-02-26T07:56:32.691Z,53.13
2019-02-26T07:59:09.454Z,48.87
2019-02-26T08:01:39.975Z,48.67
2019-02-26T08:04:13.520Z,53.17
2019-02-26T08:06:46.587Z,48.87
2019-02-26T08:09:20.838Z,46.40
2019-02-26T08:11:53.270Z,51.23
2019-02-26T08:14:25.732Z,53.33
2019-02-26T08:16:59.446Z,52.43
2019-02-26T08:19:31.997Z,50.57
2019-02-26T08:22:04.370Z,51.60
2019-02-26T08:24:36.709Z,55.37
2019-02-26T08:27:11.036Z,51.90
2019-02-26T08:29:43.379Z,55.13
2019-02-26T08:32:18.185Z,54.97
2019-02-26T08:34:49.994Z,50.37
2019-02-26T08:37:22.222Z,54.57
2019-02-26T08:39:57.424Z,50.70
2019-02-26T08:42:28.677Z,55.30
2019-02-26T08:45:01.077Z,54.33
2019-02-26T08:47:33.517Z,54.03
2019-02-26T08:50:07.324Z,51.77
2019-02-26T08:52:40.766Z,53.57
2019-02-26T08:55:15.541Z,50.67
2019-02-26T08:57:51.296Z,55.40
2019-02-26T09:00:22.035Z,54.57
2019-02-26T09:02:56.721Z,53.33
2019-02-26T09:05:31.537Z,63.13
2019-02-26T09:08:03.272Z,56.10
2019-02-26T09:10:36.433Z,57.13
2019-02-26T09:13:11.463Z,54.60
2019-02-26T09:15:44.244Z,55.67
2019-02-26T09:18:20.289Z,57.13
2019-02-26T09:20:50.741Z,53.63
2019-02-26T09:23:23.943Z,57.30
2019-02-26T09:25:59.622Z,53.93
2019-02-26T09:28:38.193Z,58.93
2019-02-26T09:31:12.459Z,53.57
2019-02-26T09:33:46.007Z,55.63
2019-02-26T09:36:20.864Z,50.00
2019-02-26T09:38:52.317Z,54.90
2019-02-26T09:41:29.150Z,52.27
2019-02-26T09:44:03.848Z,55.67
2019-02-26T09:46:41.933Z,56.47
2019-02-26T09:49:14.785Z,57.17
2019-02-26T09:51:55.084Z,55.03
2019-02-26T09:54:28.095Z,58.23
2019-02-26T09:57:02.562Z,59.07
2019-02-26T09:59:35.924Z,57.27
2019-02-26T10:02:09.418Z,55.60
2019-02-26T10:04:42.512Z,56.70
2019-02-26T10:07:15.331Z,56.53
2019-02-26T10:09:48.477Z,56.13
2019-02-26T10:12:21.197Z,52.77
2019-02-26T10:14:54.673Z,56.73
2019-02-26T10:17:27.722Z,52.00
2019-02-26T10:20:01.769Z,53.27
2019-02-26T10:22:35.680Z,57.77
2019-02-26T10:25:08.689Z,54.17
2019-02-26T10:27:43.077Z,60.30
2019-02-26T10:30:16.236Z,55.20
2019-02-26T10:32:48.668Z,57.93
2019-02-26T10:35:29.915Z,56.93
2019-02-26T10:37:57.044Z,76.83
2019-02-26T10:40:35.409Z,50.43
2019-02-26T10:43:03.589Z,59.60
2019-02-26T10:45:38.735Z,53.33
2019-02-26T10:48:10.274Z,58.37
2019-02-26T10:50:45.801Z,59.03
2019-02-26T10:53:19.745Z,65.00
2019-02-26T10:55:51.760Z,57.37
2019-02-26T10:58:24.342Z,56.30
2019-02-26T11:00:59.411Z,56.87
2019-02-26T11:03:35.472Z,58.00
2019-02-26T11:06:07.301Z,55.20
2019-02-26T11:08:41.640Z,57.27
2019-02-26T11:11:16.055Z,59.87
2019-02-26T11:13:51.201Z,50.37
2019-02-26T11:16:25.208Z,51.40
2019-02-26T11:18:56.141Z,53.63
2019-02-26T11:21:28.729Z,57.97
2019-02-26T11:24:03.519Z,54.50
2019-02-26T11:26:37.689Z,52.40
2019-02-26T11:29:09.311Z,53.67
2019-02-26T11:31:42.531Z,56.47
2019-02-26T11:34:15.976Z,56.20
2019-02-26T11:36:48.537Z,55.67
2019-02-26T11:39:21.068Z,56.00
2019-02-26T11:41:54.566Z,60.07
2019-02-26T11:44:27.761Z,58.33
2019-02-26T11:46:59.934Z,58.23
2019-02-26T11:49:34.327Z,59.20
2019-02-26T11:52:06.578Z,61.85
2019-02-26T11:54:40.249Z,60.53
2019-02-26T11:57:15.346Z,54.00
2019-02-26T11:59:48.124Z,54.67
2019-02-26T12:02:26.650Z,54.27
2019-02-26T12:04:54.905Z,57.50
2019-02-26T12:07:28.134Z,56.00
2019-02-26T12:10:07.252Z,49.80
2019-02-26T12:12:38.193Z,54.63
2019-02-26T12:15:12.451Z,55.43
2019-02-26T12:17:49.356Z,56.37
2019-02-26T12:20:24.216Z,54.00
2019-02-26T12:22:56.577Z,58.07
2019-02-26T12:25:28.890Z,55.97
2019-02-26T12:28:02.865Z,55.50
2019-02-26T12:30:37.458Z,59.53
2019-02-26T12:33:11.938Z,59.07
2019-02-26T12:35:43.877Z,58.53
2019-02-26T12:38:20.655Z,57.83
2019-02-26T12:40:53.427Z,57.20
2019-02-26T12:43:24.974Z,52.67
2019-02-26T12:45:59.371Z,56.83
2019-02-26T12:48:31.580Z,58.17
2019-02-26T12:51:04.762Z,45.67
2019-02-26T12:53:49.038Z,48.93
2019-02-26T12:56:20.593Z,53.30
2019-02-26T12:58:54.475Z,53.60
2019-02-26T13:01:27.343Z,53.97
2019-02-26T13:03:59.525Z,57.60
2019-02-26T13:06:31.702Z,59.40
2019-02-26T13:09:05.298Z,55.13
2019-02-26T13:11:37.603Z,54.80
2019-02-26T13:14:09.917Z,55.50
2019-02-26T13:16:42.604Z,55.27
2019-02-26T13:19:21.417Z,55.67
2019-02-26T13:21:51.792Z,56.70
2019-02-26T13:24:26.466Z,57.60
2019-02-26T13:26:59.707Z,56.93
2019-02-26T13:29:32.169Z,60.63
2019-02-26T13:32:07.508Z,56.07
2019-02-26T13:34:39.012Z,55.53
2019-02-26T13:37:11.623Z,56.33
2019-02-26T13:39:45.430Z,59.67
2019-02-26T13:42:19.280Z,63.40
2019-02-26T13:44:52.076Z,54.73
2019-02-26T13:47:24.447Z,59.73
2019-02-26T13:49:57.092Z,52.47
2019-02-26T13:52:29.190Z,58.57
2019-02-26T13:55:01.740Z,61.17
2019-02-26T13:57:33.957Z,70.10
2019-02-26T14:00:07.476Z,67.37
2019-02-26T14:02:40.013Z,59.33
2019-02-26T14:05:12.404Z,59.00
2019-02-26T14:07:45.729Z,58.63
2019-02-26T14:10:18.240Z,55.97
2019-02-26T14:12:50.641Z,53.43
2019-02-26T14:15:23.196Z,59.30
2019-02-26T14:17:56.106Z,55.77
2019-02-26T14:20:28.409Z,49.93
2019-02-26T14:23:00.808Z,51.80
2019-02-26T14:25:33.081Z,55.57
2019-02-26T14:28:05.640Z,55.80
2019-02-26T14:30:37.908Z,55.47
2019-02-26T14:33:10.085Z,54.13
2019-02-26T14:35:42.763Z,53.37
2019-02-26T14:38:15.062Z,54.67
2019-02-26T14:40:47.824Z,58.60
2019-02-26T14:43:20.402Z,64.80
2019-02-26T14:45:55.056Z,56.60
2019-02-26T14:48:27.434Z,58.23
2019-02-26T14:50:59.775Z,54.23
2019-02-26T14:53:32.234Z,59.33
2019-02-26T14:56:04.844Z,59.87
2019-02-26T14:58:37.792Z,62.07
2019-02-26T15:01:10.081Z,61.00
2019-02-26T15:03:42.470Z,64.10
2019-02-26T15:06:15.668Z,67.83
2019-02-26T15:08:48.222Z,64.63
2019-02-26T15:11:20.597Z,69.97
2019-02-26T15:13:54.349Z,58.30
2019-02-26T15:16:26.928Z,60.90
2019-02-26T15:18:59.024Z,63.70
2019-02-26T15:21:31.577Z,66.53
2019-02-26T15:24:03.798Z,64.60
2019-02-26T15:26:36.067Z,63.47
2019-02-26T15:29:08.218Z,63.57
2019-02-26T15:31:40.823Z,68.10
2019-02-26T15:34:12.935Z,72.00
2019-02-26T15:36:45.749Z,66.43
2019-02-26T15:39:18.332Z,68.33
2019-02-26T15:41:50.700Z,76.53
2019-02-26T15:44:23.089Z,73.33
2019-02-26T15:46:55.441Z,71.50
2019-02-26T15:49:27.554Z,69.33
2019-02-26T15:52:00.184Z,67.77
2019-02-26T15:54:32.530Z,69.20
2019-02-26T15:57:04.782Z,70.70
2019-02-26T15:59:37.053Z,77.00
2019-02-26T16:02:09.557Z,68.67
2019-02-26T16:04:41.909Z,73.33
2019-02-26T16:07:14.263Z,72.63
2019-02-26T16:09:46.529Z,67.30
2019-02-26T16:12:18.799Z,69.20
2019-02-26T16:14:51.157Z,64.67
2019-02-26T16:17:23.462Z,69.43
2019-02-26T16:19:55.836Z,62.50
2019-02-26T16:22:27.937Z,63.33
2019-02-26T16:25:00.362Z,64.23
2019-02-26T16:27:37.632Z,67.03
2019-02-26T16:30:15.254Z,64.03
2019-02-26T16:32:48.875Z,69.33
2019-02-26T16:35:24.649Z,72.93
2019-02-26T16:37:55.521Z,69.33
2019-02-26T16:40:31.250Z,73.23
2019-02-26T16:43:02.200Z,70.83
2019-02-26T16:45:35.200Z,78.37
2019-02-26T16:48:07.838Z,75.50
2019-02-26T16:50:40.100Z,74.43
2019-02-26T16:53:12.376Z,73.83
2019-02-26T16:55:48.496Z,71.23
2019-02-26T16:58:18.973Z,75.30
2019-02-26T17:00:51.649Z,76.37
2019-02-26T17:03:23.997Z,71.80
2019-02-26T17:05:56.432Z,74.77
2019-02-26T17:08:28.958Z,69.50
2019-02-26T17:11:01.329Z,75.03
2019-02-26T17:13:33.785Z,67.40
2019-02-26T17:16:06.059Z,77.90
2019-02-26T17:18:40.584Z,77.13
2019-02-26T17:21:12.794Z,73.03
2019-02-26T17:23:47.125Z,74.63
2019-02-26T17:26:19.619Z,74.33
2019-02-26T17:28:51.865Z,71.87
2019-02-26T17:31:24.362Z,72.03
2019-02-26T17:33:56.665Z,72.80
2019-02-26T17:36:29.004Z,76.93
2019-02-26T17:39:01.584Z,75.57
2019-02-26T17:41:33.851Z,72.03
2019-02-26T17:44:06.150Z,72.73
2019-02-26T17:46:38.457Z,79.47
2019-02-26T17:49:10.736Z,71.77
2019-02-26T17:51:43.262Z,73.93
2019-02-26T17:54:15.736Z,75.70
2019-02-26T17:56:48.095Z,66.20
2019-02-26T17:59:20.575Z,73.20
2019-02-26T18:01:53.244Z,72.67
2019-02-26T18:04:27.428Z,71.20
2019-02-26T18:07:00.410Z,80.47
2019-02-26T18:09:34.560Z,75.53
2019-02-26T18:12:07.795Z,74.23
2019-02-26T18:14:40.242Z,77.60
2019-02-26T18:17:12.593Z,72.90
2019-02-26T18:19:49.446Z,75.33
2019-02-26T18:22:21.411Z,76.13
2019-02-26T18:24:53.564Z,75.93
2019-02-26T18:27:27.733Z,75.27
2019-02-26T18:29:59.871Z,74.80
2019-02-26T18:32:32.210Z,76.47
2019-02-26T18:35:04.906Z,75.20
2019-02-26T18:37:46.046Z,72.30
2019-02-26T18:40:11.833Z,76.10
2019-02-26T18:42:44.764Z,77.43
2019-02-26T18:45:19.105Z,75.53
2019-02-26T18:47:51.424Z,70.30
2019-02-26T18:50:25.789Z,79.63
2019-02-26T18:52:58.280Z,80.90
2019-02-26T18:55:32.548Z,73.30
2019-02-26T18:58:04.834Z,80.17
2019-02-26T19:00:37.055Z,74.50
2019-02-26T19:03:09.564Z,78.27
2019-02-26T19:05:41.738Z,69.50
2019-02-26T19:08:14.047Z,71.20
2019-02-26T19:10:46.468Z,77.80
2019-02-26T19:13:19.548Z,70.00
2019-02-26T19:15:51.883Z,71.80
2019-02-26T19:18:24.571Z,75.97
2019-02-26T19:20:56.909Z,74.17
2019-02-26T19:23:31.444Z,74.43
2019-02-26T19:26:04.053Z,73.53
2019-02-26T19:28:36.329Z,75.20
2019-02-26T19:31:09.724Z,77.83
2019-02-26T19:33:42.607Z,79.57
2019-02-26T19:36:15.193Z,77.83
2019-02-26T19:38:47.400Z,70.07
2019-02-26T19:41:19.773Z,82.53
2019-02-26T19:43:52.013Z,70.43
2019-02-26T19:46:24.494Z,78.03
2019-02-26T19:48:58.084Z,77.43
2019-02-26T19:51:30.392Z,72.30
2019-02-26T19:54:04.736Z,71.87
2019-02-26T19:56:37.942Z,80.13
2019-02-26T19:59:13.508Z,67.20
2019-02-26T20:01:45.753Z,74.27
2019-02-26T20:04:18.059Z,77.70
2019-02-26T20:06:50.393Z,79.17
2019-02-26T20:09:22.656Z,78.17
2019-02-26T20:11:56.195Z,82.47
2019-02-26T20:14:29.062Z,82.30
2019-02-26T20:17:13.653Z,79.43
2019-02-26T20:19:35.384Z,82.10
2019-02-26T20:22:07.802Z,86.40
2019-02-26T20:24:40.094Z,86.33
2019-02-26T20:27:12.419Z,83.73
2019-02-26T20:29:44.669Z,86.97
2019-02-26T20:32:16.958Z,84.70
2019-02-26T20:34:49.591Z,88.63
2019-02-26T20:37:24.215Z,85.13
2019-02-26T20:39:56.035Z,81.50
2019-02-26T20:42:28.916Z,81.50
2019-02-26T20:45:01.876Z,91.70
2019-02-26T20:47:34.174Z,82.30
2019-02-26T20:50:06.793Z,86.13
2019-02-26T20:52:39.041Z,87.40
2019-02-26T20:55:12.530Z,83.70
2019-02-26T20:57:44.802Z,79.33
2019-02-26T21:00:17.703Z,85.90
2019-02-26T21:02:50.090Z,75.13
2019-02-26T21:05:22.732Z,87.67
2019-02-26T21:07:58.016Z,82.77
2019-02-26T21:10:29.009Z,84.80
2019-02-26T21:13:01.851Z,82.03
2019-02-26T21:15:34.704Z,85.37
2019-02-26T21:18:07.176Z,82.57
2019-02-26T21:20:41.146Z,91.20
2019-02-26T21:23:14.027Z,85.13
2019-02-26T21:25:47.536Z,85.00
2019-02-26T21:28:20.542Z,91.97
2019-02-26T21:30:52.756Z,88.70
2019-02-26T21:33:25.177Z,87.03
2019-02-26T21:35:57.641Z,87.57
2019-02-26T21:38:29.901Z,91.83
2019-02-26T21:41:02.302Z,89.97
2019-02-26T21:43:35.564Z,88.77
2019-02-26T21:46:08.069Z,88.00
2019-02-26T21:48:40.453Z,89.13
2019-02-26T21:51:12.623Z,86.93
2019-02-26T21:53:46.686Z,83.20
2019-02-26T21:56:19.053Z,86.77
2019-02-26T21:58:51.284Z,88.70
2019-02-26T22:01:23.472Z,88.97
2019-02-26T22:03:55.778Z,89.03
2019-02-26T22:06:29.729Z,90.87
2019-02-26T22:09:01.989Z,93.43
2019-02-26T22:11:34.468Z,85.67
2019-02-26T22:14:06.966Z,88.60
2019-02-26T22:16:39.337Z,89.60
2019-02-26T22:19:11.859Z,89.93
2019-02-26T22:21:52.119Z,90.53
2019-02-26T22:24:24.742Z,94.73
2019-02-26T22:26:59.360Z,85.47
2019-02-26T22:29:30.887Z,87.97
2019-02-26T22:32:03.166Z,89.83
2019-02-26T22:34:35.444Z,86.70
2019-02-26T22:37:07.857Z,92.53
2019-02-26T22:39:40.380Z,80.43
2019-02-26T22:42:12.983Z,85.93
2019-02-26T22:44:45.190Z,83.27
2019-02-26T22:47:17.324Z,80.67
2019-02-26T22:49:53.803Z,84.83
2019-02-26T22:52:24.763Z,90.60
2019-02-26T22:54:56.961Z,84.13
2019-02-26T22:57:29.811Z,80.30
2019-02-26T23:00:05.397Z,91.23
2019-02-26T23:02:40.649Z,81.80
2019-02-26T23:05:11.843Z,82.97
2019-02-26T23:07:44.375Z,84.20
2019-02-26T23:10:16.709Z,88.03
2019-02-26T23:12:48.953Z,90.63
2019-02-26T23:15:21.291Z,93.63
2019-02-26T23:17:58.202Z,85.87
2019-02-26T23:20:28.016Z,82.77
2019-02-26T23:23:00.517Z,84.27
2019-02-26T23:25:33.636Z,87.23
2019-02-26T23:28:07.234Z,86.20
2019-02-26T23:30:40.079Z,92.10
2019-02-26T23:33:14.992Z,94.50
2019-02-26T23:35:47.217Z,92.73
2019-02-26T23:38:19.534Z,82.60
2019-02-26T23:40:51.824Z,89.60
2019-02-26T23:43:24.175Z,94.63
2019-02-26T23:45:57.006Z,88.63
2019-02-26T23:48:29.928Z,91.37
2019-02-26T23:51:02.118Z,90.87
2019-02-26T23:53:34.705Z,91.93
2019-02-26T23:56:06.919Z,88.50
2019-02-26T23:58:39.467Z,90.67
